Time;durP1;ratioP1;P1;durP2;ratioP2;P2;SDS_P1;SDS_P2;PMS_P1;PMS_P2;Temp;Humidity;BMP_temperature;BMP_pressure;BME280_temperature;BME280_humidity;BME280_pressure;Samples;Min_cycle;Max_cycle;Signal;HPM_P1;HPM_P2
2022/12/14 00:00:25;;;;;;;;;;;;;;;;;;5054548;28;4974;-56
2022/12/14 00:02:50;;;;;;;;;;;;;;;;;;5056449;28;3251;-57
2022/12/14 00:05:18;;;;;;;;;;;;;;;;;;5059865;28;5057;-56
2022/12/14 00:07:44;;;;;;;;;;;;;;;;;;5039305;28;5046;-56
2022/12/14 00:10:09;;;;;;;;;;;;;;;;;;5058195;28;5507;-56
2022/12/14 00:12:35;;;;;;;;;;;;;;;;;;5055923;28;5019;-56
2022/12/14 00:15:00;;;;;;;;;;;;;;;;;;5055641;28;3493;-57
2022/12/14 00:17:26;;;;;;;;;;;;;;;;;;5053789;28;5066;-56
2022/12/14 00:19:52;;;;;;;;;;;;;;;;;;5055760;28;5007;-56
2022/12/14 00:22:17;;;;;;;;;;;;;;;;;;5057457;28;5323;-56
2022/12/14 00:24:42;;;;;;;;;;;;;;;;;;5051189;28;5114;-56
2022/12/14 00:27:07;;;;;;;;;;;;;;;;;;5057438;28;3567;-56
2022/12/14 00:29:33;;;;;;;;;;;;;;;;;;5061083;28;4968;-56
2022/12/14 00:31:58;;;;;;;;;;;;;;;;;;5035491;28;5261;-56
2022/12/14 00:34:23;;;;;;;;;;;;;;;;;;5052258;28;5073;-56
2022/12/14 00:36:48;;;;;;;;;;;;;;;;;;5024835;28;4524;-55
2022/12/14 00:39:14;;;;;;;;;;;;;;;;;;5054581;28;3374;-54
2022/12/14 00:41:39;;;;;;;;;;;;;;;;;;5055296;28;5017;-55
2022/12/14 00:44:04;;;;;;;;;;;;;;;;;;5052577;28;5038;-56
2022/12/14 00:46:29;;;;;;;;;;;;;;;;;;5057121;28;5023;-55
2022/12/14 00:48:55;;;;;;;;;;;;;;;;;;5052738;28;5086;-56
2022/12/14 00:51:20;;;;;;;;;;;;;;;;;;5055753;28;5645;-55
2022/12/14 00:53:45;;;;;;;;;;;;;;;;;;5055128;28;4437;-54
2022/12/14 00:56:10;;;;;;;;;;;;;;;;;;5056732;28;5141;-55
2022/12/14 00:58:36;;;;;;;;;;;;;;;;;;5047583;28;5086;-56
2022/12/14 01:01:02;;;;;;;;;;;;;;;;;;5053662;28;4575;-56
2022/12/14 01:03:27;;;;;;;;;;;;;;;;;;5050536;28;5078;-57
2022/12/14 01:05:52;;;;;;;;;;;;;;;;;;5055820;28;1077;-57
2022/12/14 01:08:18;;;;;;;;;;;;;;;;;;5036786;28;5115;-57
2022/12/14 01:10:43;;;;;;;;;;;;;;;;;;5055371;28;4961;-57
2022/12/14 01:13:09;;;;;;;;;;;;;;;;;;5050498;28;5257;-56
2022/12/14 01:15:34;;;;;;;;;;;;;;;;;;5045555;28;4962;-57
2022/12/14 01:18:00;;;;;;;;;;;;;;;;;;5055197;28;3283;-56
2022/12/14 01:20:25;;;;;;;;;;;;;;;;;;5047918;28;5008;-56
2022/12/14 01:22:54;;;;;;;;;;;;;;;;;;5051679;28;5073;-56
2022/12/14 01:25:20;;;;;;;;;;;;;;;;;;5048152;28;4625;-56
2022/12/14 01:27:45;;;;;;;;;;;;;;;;;;5056193;28;5204;-56
2022/12/14 01:30:10;;;;;;;;;;;;;;;;;;5057219;28;1918;-57
2022/12/14 01:32:36;;;;;;;;;;;;;;;;;;5054846;28;4974;-57
2022/12/14 01:35:01;;;;;;;;;;;;;;;;;;5054192;28;5060;-56
2022/12/14 01:37:27;;;;;;;;;;;;;;;;;;5022942;28;5280;-56
2022/12/14 01:39:52;;;;;;;;;;;;;;;;;;5034372;28;4496;-57
2022/12/14 01:42:18;;;;;;;;;;;;;;;;;;5031366;28;5069;-55
2022/12/14 01:44:43;;;;;;;;;;;;;;;;;;5028010;28;1464;-56
2022/12/14 01:47:17;;;;;;;;;;;;;;;;;;5026503;28;5510;-56
2022/12/14 01:49:44;;;;;;;;;;;;;;;;;;5024460;28;5041;-56
2022/12/14 01:52:09;;;;;;;;;;;;;;;;;;5027434;28;4517;-56
2022/12/14 01:54:37;;;;;;;;;;;;;;;;;;5034399;28;5053;-56
2022/12/14 01:57:02;;;;;;;;;;;;;;;;;;5015578;28;3215;-58
2022/12/14 01:59:30;;;;;;;;;;;;;;;;;;5027717;28;5069;-56
2022/12/14 02:01:56;;;;;;;;;;;;;;;;;;5032331;28;4522;-56
2022/12/14 02:04:21;;;;;;;;;;;;;;;;;;5015758;28;4443;-56
2022/12/14 02:06:47;;;;;;;;;;;;;;;;;;5014062;28;5125;-56
2022/12/14 02:09:14;;;;;;;;;;;;;;;;;;5035038;28;3499;-56
2022/12/14 02:11:42;;;;;;;;;;;;;;;;;;5008857;28;4440;-57
2022/12/14 02:14:08;;;;;;;;;;;;;;;;;;5038211;28;4997;-55
2022/12/14 02:16:33;;;;;;;;;;;;;;;;;;5031541;28;6276;-56
2022/12/14 02:18:58;;;;;;;;;;;;;;;;;;5015118;28;5092;-56
2022/12/14 02:21:35;;;;;;;;;;;;;;;;;;5037877;28;4569;-57
2022/12/14 02:24:15;;;;;;;;;;;;;;;;;;5031635;28;3732;-56
2022/12/14 02:26:44;;;;;;;;;;;;;;;;;;5032883;28;4941;-57
2022/12/14 02:29:09;;;;;;;;;;;;;;;;;;5031972;28;5521;-57
2022/12/14 02:31:53;;;;;;;;;;;;;;;;;;5036310;28;5000;-56
2022/12/14 02:34:32;;;;;;;;;;;;;;;;;;5032144;28;4999;-56
2022/12/14 02:37:06;;;;;;;;;;;;;;;;;;5027216;28;5117;-57
2022/12/14 02:39:34;;;;;;;;;;;;;;;;;;5055080;28;5106;-56
2022/12/14 02:42:23;;;;;;;;;;;;;;;;;;5050881;28;3222;-57
2022/12/14 02:44:56;;;;;;;;;;;;;;;;;;5017230;28;6258;-58
2022/12/14 02:47:25;;;;;;;;;;;;;;;;;;5030695;28;4430;-56
2022/12/14 02:49:50;;;;;;;;;;;;;;;;;;5033253;28;5205;-56
2022/12/14 02:52:19;;;;;;;;;;;;;;;;;;5047402;28;5310;-56
2022/12/14 02:54:47;;;;;;;;;;;;;;;;;;5047007;28;4615;-56
2022/12/14 02:57:24;;;;;;;;;;;;;;;;;;5038029;28;1126;-56
2022/12/14 02:59:49;;;;;;;;;;;;;;;;;;5047890;28;5066;-56
2022/12/14 03:02:14;;;;;;;;;;;;;;;;;;5038152;28;4442;-56
2022/12/14 03:04:44;;;;;;;;;;;;;;;;;;5041466;28;5002;-56
2022/12/14 03:07:30;;;;;;;;;;;;;;;;;;5037549;28;5012;-56
2022/12/14 03:09:55;;;;;;;;;;;;;;;;;;5051090;28;5084;-57
2022/12/14 03:12:21;;;;;;;;;;;;;;;;;;5037781;28;5041;-56
2022/12/14 03:14:47;;;;;;;;;;;;;;;;;;5050069;28;1452;-56
2022/12/14 03:17:16;;;;;;;;;;;;;;;;;;5038444;28;5024;-57
2022/12/14 03:19:58;;;;;;;;;;;;;;;;;;5061427;28;4996;-56
2022/12/14 03:22:26;;;;;;;;;;;;;;;;;;5028068;28;5023;-56
2022/12/14 03:24:53;;;;;;;;;;;;;;;;;;5028245;28;5159;-56
2022/12/14 03:27:23;;;;;;;;;;;;;;;;;;5051573;28;5253;-56
2022/12/14 03:30:05;;;;;;;;;;;;;;;;;;5023926;28;3465;-56
2022/12/14 03:32:30;;;;;;;;;;;;;;;;;;5025901;28;5106;-57
2022/12/14 03:35:08;;;;;;;;;;;;;;;;;;5032011;28;5015;-56
2022/12/14 03:37:35;;;;;;;;;;;;;;;;;;5033571;28;4735;-56
2022/12/14 03:40:00;;;;;;;;;;;;;;;;;;5014668;28;4711;-56
2022/12/14 03:42:29;;;;;;;;;;;;;;;;;;5014081;28;5167;-56
2022/12/14 03:44:54;;;;;;;;;;;;;;;;;;5014979;28;3324;-56
2022/12/14 03:47:23;;;;;;;;;;;;;;;;;;5028455;28;4820;-56
2022/12/14 03:49:48;;;;;;;;;;;;;;;;;;5029238;28;5039;-56
2022/12/14 03:52:14;;;;;;;;;;;;;;;;;;5037836;28;4721;-56
2022/12/14 03:54:45;;;;;;;;;;;;;;;;;;5032770;28;4631;-56
2022/12/14 03:57:10;;;;;;;;;;;;;;;;;;5032370;28;3278;-56
2022/12/14 03:59:36;;;;;;;;;;;;;;;;;;5034679;28;4986;-56
2022/12/14 04:02:01;;;;;;;;;;;;;;;;;;5033904;28;5119;-56
2022/12/14 04:04:29;;;;;;;;;;;;;;;;;;5034722;28;4740;-56
2022/12/14 04:07:24;;;;;;;;;;;;;;;;;;5013173;28;5188;-56
2022/12/14 04:10:00;;;;;;;;;;;;;;;;;;5020871;28;4537;-56
2022/12/14 04:20:45;;;;;;;;;;;;;;;;;;5031465;28;4596;-56
2022/12/14 04:23:15;;;;;;;;;;;;;;;;;;5011377;28;5128;-56
2022/12/14 04:31:14;;;;;;;;;;;;;;;;;;5011715;28;5157;-56
2022/12/14 04:33:45;;;;;;;;;;;;;;;;;;5018370;28;5296;-56
2022/12/14 04:36:10;;;;;;;;;;;;;;;;;;5022832;28;1532;-55
2022/12/14 04:38:36;;;;;;;;;;;;;;;;;;5046924;28;5037;-56
2022/12/14 04:41:08;;;;;;;;;;;;;;;;;;5043706;28;4438;-55
2022/12/14 04:43:38;;;;;;;;;;;;;;;;;;5049462;28;5048;-56
2022/12/14 04:46:05;;;;;;;;;;;;;;;;;;5041409;28;4485;-56
2022/12/14 04:48:30;;;;;;;;;;;;;;;;;;5042355;28;4475;-56
2022/12/14 04:51:08;;;;;;;;;;;;;;;;;;5047035;28;1910;-56
2022/12/14 04:53:33;;;;;;;;;;;;;;;;;;5046637;28;5105;-56
2022/12/14 04:56:12;;;;;;;;;;;;;;;;;;5047513;28;4995;-56
2022/12/14 04:58:38;;;;;;;;;;;;;;;;;;5042730;28;5015;-57
2022/12/14 05:01:22;;;;;;;;;;;;;;;;;;5047236;28;5130;-57
2022/12/14 05:04:07;;;;;;;;;;;;;;;;;;5043044;28;5101;-56
2022/12/14 05:06:36;;;;;;;;;;;;;;;;;;5007492;28;5063;-56
2022/12/14 05:09:10;;;;;;;;;;;;;;;;;;5044916;28;3335;-55
2022/12/14 05:12:04;;;;;;;;;;;;;;;;;;5046387;28;4874;-56
2022/12/14 05:14:36;;;;;;;;;;;;;;;;;;5024850;28;4452;-56
2022/12/14 05:17:02;;;;;;;;;;;;;;;;;;5042395;28;5059;-56
2022/12/14 05:19:28;;;;;;;;;;;;;;;;;;5040456;28;5349;-56
2022/12/14 05:21:53;;;;;;;;;;;;;;;;;;5047718;28;4988;-57
2022/12/14 05:24:18;;;;;;;;;;;;;;;;;;5041863;28;5299;-57
2022/12/14 05:26:43;;;;;;;;;;;;;;;;;;5046042;28;3267;-57
2022/12/14 05:29:09;;;;;;;;;;;;;;;;;;5046609;28;5182;-57
2022/12/14 05:31:34;;;;;;;;;;;;;;;;;;5043387;28;5197;-56
2022/12/14 05:33:59;;;;;;;;;;;;;;;;;;5041438;28;4907;-56
2022/12/14 05:36:25;;;;;;;;;;;;;;;;;;5046182;28;5121;-57
2022/12/14 05:38:50;;;;;;;;;;;;;;;;;;5042248;28;3307;-56
2022/12/14 05:41:15;;;;;;;;;;;;;;;;;;5038390;28;5138;-57
2022/12/14 05:43:40;;;;;;;;;;;;;;;;;;5037927;28;4749;-57
2022/12/14 05:46:06;;;;;;;;;;;;;;;;;;5036499;28;5203;-57
2022/12/14 05:48:32;;;;;;;;;;;;;;;;;;5038630;28;4999;-56
2022/12/14 05:51:04;;;;;;;;;;;;;;;;;;5042062;28;3503;-57
2022/12/14 05:53:29;;;;;;;;;;;;;;;;;;5041273;28;5093;-57
2022/12/14 05:55:54;;;;;;;;;;;;;;;;;;5040931;28;5038;-57
2022/12/14 05:58:20;;;;;;;;;;;;;;;;;;5046627;28;4575;-56
2022/12/14 06:00:45;;;;;;;;;;;;;;;;;;5046422;28;4753;-56
2022/12/14 06:03:10;;;;;;;;;;;;;;;;;;5044412;28;2475;-56
2022/12/14 06:05:36;;;;;;;;;;;;;;;;;;5048675;28;5160;-56
2022/12/14 06:08:01;;;;;;;;;;;;;;;;;;5043776;28;5051;-56
2022/12/14 06:10:26;;;;;;;;;;;;;;;;;;5039268;28;5167;-57
2022/12/14 06:12:51;;;;;;;;;;;;;;;;;;5036689;28;4925;-57
2022/12/14 06:15:17;;;;;;;;;;;;;;;;;;5034566;28;3541;-56
2022/12/14 06:17:42;;;;;;;;;;;;;;;;;;5043850;28;4877;-57
2022/12/14 06:20:08;;;;;;;;;;;;;;;;;;5039794;28;4684;-57
2022/12/14 06:22:33;;;;;;;;;;;;;;;;;;5040708;28;5056;-56
2022/12/14 06:24:58;;;;;;;;;;;;;;;;;;5043477;28;4646;-57
2022/12/14 06:27:24;;;;;;;;;;;;;;;;;;5034441;28;4925;-58
2022/12/14 06:29:49;;;;;;;;;;;;;;;;;;5040434;28;3238;-56
2022/12/14 06:32:14;;;;;;;;;;;;;;;;;;5029454;28;4754;-57
2022/12/14 06:34:39;;;;;;;;;;;;;;;;;;5031450;28;4521;-57
2022/12/14 06:37:05;;;;;;;;;;;;;;;;;;5036982;28;5053;-54
2022/12/14 06:39:30;;;;;;;;;;;;;;;;;;5054937;28;5097;-56
2022/12/14 06:41:55;;;;;;;;;;;;;;;;;;5054856;28;3228;-56
2022/12/14 06:44:20;;;;;;;;;;;;;;;;;;5030516;28;4962;-56
2022/12/14 06:46:46;;;;;;;;;;;;;;;;;;5034555;28;4877;-59
2022/12/14 06:49:15;;;;;;;;;;;;;;;;;;5035531;28;5599;-58
2022/12/14 06:51:40;;;;;;;;;;;;;;;;;;5036807;28;5077;-58
2022/12/14 06:54:05;;;;;;;;;;;;;;;;;;5040567;28;4586;-67
2022/12/14 06:56:30;;;;;;;;;;;;;;;;;;5034732;28;5126;-57
2022/12/14 06:58:56;;;;;;;;;;;;;;;;;;5049257;28;5015;-59
2022/12/14 07:01:21;;;;;;;;;;;;;;;;;;5036842;28;5173;-59
2022/12/14 07:03:47;;;;;;;;;;;;;;;;;;5032374;28;5169;-59
2022/12/14 07:06:12;;;;;;;;;;;;;;;;;;5054545;28;3415;-61
2022/12/14 07:08:38;;;;;;;;;;;;;;;;;;5035970;28;4968;-60
2022/12/14 07:11:03;;;;;;;;;;;;;;;;;;5030654;28;5101;-59
2022/12/14 07:13:29;;;;;;;;;;;;;;;;;;5049130;28;5010;-62
2022/12/14 07:15:54;;;;;;;;;;;;;;;;;;5050416;28;4469;-62
2022/12/14 07:18:19;;;;;;;;;;;;;;;;;;5042178;28;4566;-58
2022/12/14 07:21:01;;;;;;;;;;;;;;;;;;5047004;28;3373;-62
2022/12/14 07:23:26;;;;;;;;;;;;;;;;;;5042396;28;5384;-61
2022/12/14 07:25:52;;;;;;;;;;;;;;;;;;5052234;28;5192;-61
2022/12/14 07:28:17;;;;;;;;;;;;;;;;;;5041062;28;5090;-59
2022/12/14 07:30:42;;;;;;;;;;;;;;;;;;5027406;28;5228;-59
2022/12/14 07:33:09;;;;;;;;;;;;;;;;;;5048912;28;3360;-59
2022/12/14 07:35:34;;;;;;;;;;;;;;;;;;5052344;28;5188;-59
2022/12/14 07:37:59;;;;;;;;;;;;;;;;;;5052914;28;5223;-59
2022/12/14 07:40:24;;;;;;;;;;;;;;;;;;5057611;28;4883;-59
2022/12/14 07:42:50;;;;;;;;;;;;;;;;;;5055236;28;5276;-59
2022/12/14 07:45:15;;;;;;;;;;;;;;;;;;5054417;28;1420;-59
2022/12/14 07:47:41;;;;;;;;;;;;;;;;;;5053359;28;5496;-59
2022/12/14 07:50:06;;;;;;;;;;;;;;;;;;5055414;28;5116;-59
2022/12/14 07:52:31;;;;;;;;;;;;;;;;;;5055806;28;4558;-59
2022/12/14 07:54:56;;;;;;;;;;;;;;;;;;5050119;28;5020;-59
2022/12/14 07:57:22;;;;;;;;;;;;;;;;;;5055093;28;4920;-59
2022/12/14 07:59:48;;;;;;;;;;;;;;;;;;5041314;28;1414;-59
2022/12/14 08:02:13;;;;;;;;;;;;;;;;;;5054580;28;5116;-59
2022/12/14 08:04:38;;;;;;;;;;;;;;;;;;5056246;28;5012;-59
2022/12/14 08:07:04;;;;;;;;;;;;;;;;;;5055592;28;5092;-59
2022/12/14 08:09:29;;;;;;;;;;;;;;;;;;5058268;28;4553;-59
2022/12/14 08:11:54;;;;;;;;;;;;;;;;;;5053392;28;1963;-59
2022/12/14 08:14:20;;;;;;;;;;;;;;;;;;5048824;28;4466;-59
2022/12/14 08:16:45;;;;;;;;;;;;;;;;;;5054340;28;5220;-59
2022/12/14 08:19:11;;;;;;;;;;;;;;;;;;5057064;28;4567;-59
2022/12/14 08:21:36;;;;;;;;;;;;;;;;;;5056961;28;1364;-59
2022/12/14 08:24:01;;;;;;;;;;;;;;;;;;5056846;28;4512;-58
2022/12/14 08:26:26;;;;;;;;;;;;;;;;;;5056064;28;5050;-59
2022/12/14 08:28:53;;;;;;;;;;;;;;;;;;5056708;28;4560;-59
2022/12/14 08:31:20;;;;;;;;;;;;;;;;;;5052976;28;1910;-59
2022/12/14 08:33:45;;;;;;;;;;;;;;;;;;5052612;28;4620;-59
2022/12/14 08:36:11;;;;;;;;;;;;;;;;;;5050929;28;4540;-59
2022/12/14 08:41:35;;;;;;;;;;;;;;;;;;5056008;28;5107;-59
2022/12/14 08:44:01;;;;;;;;;;;;;;;;;;5056589;28;1469;-59
2022/12/14 08:46:26;;;;;;;;;;;;;;;;;;5039024;28;5116;-59
2022/12/14 08:48:52;;;;;;;;;;;;;;;;;;5048984;28;4669;-59
2022/12/14 08:51:17;;;;;;;;;;;;;;;;;;5052985;28;1982;-59
2022/12/14 08:53:43;;;;;;;;;;;;;;;;;;5057114;28;4556;-59
2022/12/14 08:56:09;;;;;;;;;;;;;;;;;;5059241;28;1121;-59
2022/12/14 08:58:35;;;;;;;;;;;;;;;;;;5053220;28;4920;-59
2022/12/14 09:01:02;;;;;;;;;;;;;;;;;;5054734;28;4682;-59
2022/12/14 09:03:27;;;;;;;;;;;;;;;;;;5056544;28;4537;-59
2022/12/14 09:05:54;;;;;;;;;;;;;;;;;;5053137;28;4704;-59
2022/12/14 09:08:19;;;;;;;;;;;;;;;;;;5038228;28;1349;-59
2022/12/14 09:10:50;;;;;;;;;;;;;;;;;;5052089;28;4988;-60
2022/12/14 09:13:16;;;;;;;;;;;;;;;;;;5054572;28;4771;-59
2022/12/14 09:15:41;;;;;;;;;;;;;;;;;;5039787;28;4575;-59
2022/12/14 09:18:07;;;;;;;;;;;;;;;;;;5056903;28;1547;-59
2022/12/14 09:20:32;;;;;;;;;;;;;;;;;;5053647;28;4994;-59
2022/12/14 09:22:57;;;;;;;;;;;;;;;;;;5057624;28;4740;-59
2022/12/14 09:25:23;;;;;;;;;;;;;;;;;;5051484;28;4614;-58
2022/12/14 09:27:49;;;;;;;;;;;;;;;;;;5056012;28;3326;-59
2022/12/14 09:30:15;;;;;;;;;;;;;;;;;;5039443;28;4439;-60
2022/12/14 09:32:41;;;;;;;;;;;;;;;;;;5054004;28;4671;-59
2022/12/14 09:35:06;;;;;;;;;;;;;;;;;;5029597;28;4690;-59
2022/12/14 09:37:38;;;;;;;;;;;;;;;;;;5052159;28;4707;-57
2022/12/14 09:40:04;;;;;;;;;;;;;;;;;;5055410;28;1617;-59
2022/12/14 09:42:45;;;;;;;;;;;;;;;;;;5057728;28;4975;-59
2022/12/14 09:45:24;;;;;;;;;;;;;;;;;;5050837;28;6046;-58
2022/12/14 09:47:55;;;;;;;;;;;;;;;;;;5036249;28;5165;-59
2022/12/14 09:50:20;;;;;;;;;;;;;;;;;;5020558;28;4592;-59
2022/12/14 09:52:50;;;;;;;;;;;;;;;;;;5054751;28;5212;-60
2022/12/14 09:55:38;;;;;;;;;;;;;;;;;;5034468;28;5074;-58
2022/12/14 09:58:22;;;;;;;;;;;;;;;;;;5043483;28;1744;-59
2022/12/14 10:00:53;;;;;;;;;;;;;;;;;;5037758;28;4933;-59
2022/12/14 10:03:21;;;;;;;;;;;;;;;;;;5049273;28;5076;-59
2022/12/14 10:05:50;;;;;;;;;;;;;;;;;;5048155;28;5061;-59
2022/12/14 10:08:19;;;;;;;;;;;;;;;;;;5037141;28;4471;-59
2022/12/14 10:11:03;;;;;;;;;;;;;;;;;;5040899;28;5261;-58
2022/12/14 10:13:29;;;;;;;;;;;;;;;;;;5058592;28;4654;-59
2022/12/14 10:15:54;;;;;;;;;;;;;;;;;;5055810;28;3515;-59
2022/12/14 10:18:23;;;;;;;;;;;;;;;;;;5054292;28;5214;-59
2022/12/14 10:20:51;;;;;;;;;;;;;;;;;;5042174;28;5181;-59
2022/12/14 10:23:19;;;;;;;;;;;;;;;;;;5059979;28;4957;-59
2022/12/14 10:25:45;;;;;;;;;;;;;;;;;;5052256;28;4997;-60
2022/12/14 10:28:17;;;;;;;;;;;;;;;;;;5032510;28;3719;-59
2022/12/14 10:30:43;;;;;;;;;;;;;;;;;;5026510;28;4911;-59
2022/12/14 10:33:14;;;;;;;;;;;;;;;;;;5011554;28;4988;-59
2022/12/14 10:35:50;;;;;;;;;;;;;;;;;;5041375;28;4903;-59
2022/12/14 10:38:34;;;;;;;;;;;;;;;;;;5040152;28;5681;-59
2022/12/14 10:41:03;;;;;;;;;;;;;;;;;;5030526;28;5003;-59
2022/12/14 10:43:50;;;;;;;;;;;;;;;;;;5015036;28;4793;-59
2022/12/14 10:46:18;;;;;;;;;;;;;;;;;;5032950;28;4908;-59
2022/12/14 10:48:44;;;;;;;;;;;;;;;;;;5046609;28;3493;-59
2022/12/14 10:51:18;;;;;;;;;;;;;;;;;;5053618;28;5060;-59
2022/12/14 10:53:43;;;;;;;;;;;;;;;;;;5030945;28;4561;-59
2022/12/14 10:56:10;;;;;;;;;;;;;;;;;;5046001;28;4994;-59
2022/12/14 10:58:35;;;;;;;;;;;;;;;;;;5026733;28;5239;-59
2022/12/14 11:01:00;;;;;;;;;;;;;;;;;;5055550;28;3235;-59
2022/12/14 11:03:27;;;;;;;;;;;;;;;;;;5035975;28;5070;-59
2022/12/14 11:05:56;;;;;;;;;;;;;;;;;;5043179;28;5466;-59
2022/12/14 11:08:40;;;;;;;;;;;;;;;;;;5043355;28;4972;-59
2022/12/14 11:11:19;;;;;;;;;;;;;;;;;;5046660;28;4459;-59
2022/12/14 11:14:11;;;;;;;;;;;;;;;;;;5028127;28;4778;-59
2022/12/14 11:16:37;;;;;;;;;;;;;;;;;;5051388;28;5884;-59
2022/12/14 11:19:03;;;;;;;;;;;;;;;;;;5039636;28;1153;-59
2022/12/14 11:21:34;;;;;;;;;;;;;;;;;;5039007;28;5328;-59
2022/12/14 11:24:00;;;;;;;;;;;;;;;;;;5035384;28;5148;-59
2022/12/14 11:26:35;;;;;;;;;;;;;;;;;;5056628;28;5536;-59
2022/12/14 11:29:01;;;;;;;;;;;;;;;;;;5055362;28;4434;-59
2022/12/14 11:31:33;;;;;;;;;;;;;;;;;;5040835;28;5133;-58
2022/12/14 11:33:59;;;;;;;;;;;;;;;;;;5023198;28;1346;-59
2022/12/14 11:36:37;;;;;;;;;;;;;;;;;;5035362;28;4813;-59
2022/12/14 11:39:20;;;;;;;;;;;;;;;;;;5052628;28;4993;-59
2022/12/14 11:41:49;;;;;;;;;;;;;;;;;;5035940;28;5075;-59
2022/12/14 11:44:14;;;;;;;;;;;;;;;;;;5043086;28;5082;-59
2022/12/14 11:46:52;;;;;;;;;;;;;;;;;;5040216;28;4709;-59
2022/12/14 11:49:23;;;;;;;;;;;;;;;;;;5051262;28;5427;-59
2022/12/14 11:51:52;;;;;;;;;;;;;;;;;;5034146;28;2851;-59
2022/12/14 11:54:18;;;;;;;;;;;;;;;;;;5015423;28;4469;-59
2022/12/14 11:56:43;;;;;;;;;;;;;;;;;;5051726;28;5114;-59
2022/12/14 11:59:12;;;;;;;;;;;;;;;;;;5038274;28;4998;-59
2022/12/14 12:01:37;;;;;;;;;;;;;;;;;;5036843;28;5090;-59
2022/12/14 12:04:03;;;;;;;;;;;;;;;;;;5031694;28;3404;-58
2022/12/14 12:06:28;;;;;;;;;;;;;;;;;;5053490;28;5040;-59
2022/12/14 12:08:57;;;;;;;;;;;;;;;;;;5055833;28;5111;-59
2022/12/14 12:11:23;;;;;;;;;;;;;;;;;;5040813;28;5187;-59
2022/12/14 12:13:51;;;;;;;;;;;;;;;;;;5057112;28;5031;-59
2022/12/14 12:16:18;;;;;;;;;;;;;;;;;;5050371;28;4858;-58
2022/12/14 12:18:51;;;;;;;;;;;;;;;;;;5055488;28;3562;-59
2022/12/14 12:21:17;;;;;;;;;;;;;;;;;;5034291;28;5257;-59
2022/12/14 12:24:01;;;;;;;;;;;;;;;;;;5054044;28;4973;-59
2022/12/14 12:26:30;;;;;;;;;;;;;;;;;;5055972;28;4933;-59
2022/12/14 12:29:05;;;;;;;;;;;;;;;;;;5033623;28;5010;-59
2022/12/14 12:31:31;;;;;;;;;;;;;;;;;;5038065;28;5131;-59
2022/12/14 12:34:03;;;;;;;;;;;;;;;;;;5050277;28;3450;-59
2022/12/14 12:36:29;;;;;;;;;;;;;;;;;;5036798;28;5350;-59
2022/12/14 12:38:54;;;;;;;;;;;;;;;;;;5054850;28;4847;-58
2022/12/14 12:41:28;;;;;;;;;;;;;;;;;;5055225;28;5058;-59
2022/12/14 12:43:57;;;;;;;;;;;;;;;;;;5053554;28;5064;-59
2022/12/14 12:46:27;;;;;;;;;;;;;;;;;;5029808;28;5321;-59
2022/12/14 12:48:53;;;;;;;;;;;;;;;;;;5054501;28;3575;-59
2022/12/14 12:51:23;;;;;;;;;;;;;;;;;;5037963;28;4652;-59
2022/12/14 12:53:49;;;;;;;;;;;;;;;;;;5039893;28;4995;-59
2022/12/14 12:56:15;;;;;;;;;;;;;;;;;;5038513;28;5026;-59
2022/12/14 12:58:41;;;;;;;;;;;;;;;;;;5048209;28;5064;-59
2022/12/14 13:01:18;;;;;;;;;;;;;;;;;;5040541;28;1699;-59
2022/12/14 13:03:44;;;;;;;;;;;;;;;;;;5056439;28;5068;-59
2022/12/14 13:06:15;;;;;;;;;;;;;;;;;;5022137;28;4519;-59
2022/12/14 13:08:40;;;;;;;;;;;;;;;;;;5051687;28;5628;-59
2022/12/14 13:11:09;;;;;;;;;;;;;;;;;;5049390;28;5211;-59
2022/12/14 13:13:35;;;;;;;;;;;;;;;;;;5032588;28;5065;-59
2022/12/14 13:16:14;;;;;;;;;;;;;;;;;;5036159;28;1414;-59
2022/12/14 13:18:41;;;;;;;;;;;;;;;;;;5035857;28;4423;-59
2022/12/14 13:21:33;;;;;;;;;;;;;;;;;;5036398;28;4650;-59
2022/12/14 13:23:59;;;;;;;;;;;;;;;;;;5053514;28;5057;-59
2022/12/14 13:26:36;;;;;;;;;;;;;;;;;;5057009;28;5061;-59
2022/12/14 13:29:13;;;;;;;;;;;;;;;;;;5055562;28;4920;-59
2022/12/14 13:31:52;;;;;;;;;;;;;;;;;;5038661;28;4970;-59
2022/12/14 13:34:24;;;;;;;;;;;;;;;;;;5025211;28;4486;-59
2022/12/14 13:37:08;;;;;;;;;;;;;;;;;;5033497;28;3352;-58
2022/12/14 13:39:44;;;;;;;;;;;;;;;;;;5054704;28;4942;-58
2022/12/14 13:42:35;;;;;;;;;;;;;;;;;;5056451;28;4953;-58
2022/12/14 13:45:01;;;;;;;;;;;;;;;;;;5051473;28;5227;-58
2022/12/14 13:47:37;;;;;;;;;;;;;;;;;;5060143;28;5052;-58
2022/12/14 13:50:03;;;;;;;;;;;;;;;;;;5044219;28;5112;-59
2022/12/14 13:52:41;;;;;;;;;;;;;;;;;;5055106;28;5083;-59
2022/12/14 13:55:28;;;;;;;;;;;;;;;;;;5042322;28;1173;-58
2022/12/14 13:57:53;;;;;;;;;;;;;;;;;;5039436;28;4983;-58
2022/12/14 14:00:47;;;;;;;;;;;;;;;;;;5028893;28;4599;-58
2022/12/14 14:03:31;;;;;;;;;;;;;;;;;;5060080;28;5030;-58
2022/12/14 14:05:59;;;;;;;;;;;;;;;;;;5061043;28;5018;-60
2022/12/14 14:08:32;;;;;;;;;;;;;;;;;;5058829;28;5105;-60
2022/12/14 14:10:57;;;;;;;;;;;;;;;;;;5059852;28;5987;-60
2022/12/14 14:13:25;;;;;;;;;;;;;;;;;;5055469;28;5035;-60
2022/12/14 14:15:51;;;;;;;;;;;;;;;;;;5058157;28;1540;-61
2022/12/14 14:18:18;;;;;;;;;;;;;;;;;;5059029;28;5067;-61
2022/12/14 14:20:43;;;;;;;;;;;;;;;;;;5038689;28;5045;-60
2022/12/14 14:23:11;;;;;;;;;;;;;;;;;;5057484;28;4574;-58
2022/12/14 14:25:37;;;;;;;;;;;;;;;;;;5060478;28;4614;-58
2022/12/14 14:28:02;;;;;;;;;;;;;;;;;;5057866;28;1142;-60
2022/12/14 14:30:28;;;;;;;;;;;;;;;;;;5057585;28;5335;-60
2022/12/14 14:32:53;;;;;;;;;;;;;;;;;;5057180;28;5185;-61
2022/12/14 14:35:34;;;;;;;;;;;;;;;;;;5060038;28;5045;-58
2022/12/14 14:38:00;;;;;;;;;;;;;;;;;;5038709;28;5020;-60
2022/12/14 14:40:26;;;;;;;;;;;;;;;;;;5019145;28;5399;-60
2022/12/14 14:42:56;;;;;;;;;;;;;;;;;;5039510;28;1172;-59
2022/12/14 14:45:33;;;;;;;;;;;;;;;;;;5049556;28;4532;-59
2022/12/14 14:47:59;;;;;;;;;;;;;;;;;;5059642;28;4946;-58
2022/12/14 14:50:26;;;;;;;;;;;;;;;;;;5058960;28;5003;-58
2022/12/14 14:53:11;;;;;;;;;;;;;;;;;;5056006;28;4873;-58
2022/12/14 14:55:36;;;;;;;;;;;;;;;;;;5053059;28;5015;-60
2022/12/14 14:58:07;;;;;;;;;;;;;;;;;;5060885;28;2031;-60
2022/12/14 15:00:38;;;;;;;;;;;;;;;;;;5058352;28;4655;-60
2022/12/14 15:03:05;;;;;;;;;;;;;;;;;;5057543;28;4997;-60
2022/12/14 15:05:31;;;;;;;;;;;;;;;;;;5020471;28;5197;-60
2022/12/14 15:07:57;;;;;;;;;;;;;;;;;;5040441;28;5046;-60
2022/12/14 15:10:25;;;;;;;;;;;;;;;;;;5057663;28;5004;-60
2022/12/14 15:12:52;;;;;;;;;;;;;;;;;;5055643;28;3624;-60
2022/12/14 15:15:27;;;;;;;;;;;;;;;;;;5039743;28;4969;-60
2022/12/14 15:17:52;;;;;;;;;;;;;;;;;;5037204;28;4976;-60
2022/12/14 15:20:19;;;;;;;;;;;;;;;;;;5057316;28;5045;-60
2022/12/14 15:22:44;;;;;;;;;;;;;;;;;;5053136;28;5250;-59
2022/12/14 15:25:17;;;;;;;;;;;;;;;;;;5059623;28;1081;-60
2022/12/14 15:27:42;;;;;;;;;;;;;;;;;;5038523;28;4401;-60
2022/12/14 15:30:11;;;;;;;;;;;;;;;;;;5038600;28;4411;-60
2022/12/14 15:32:40;;;;;;;;;;;;;;;;;;5055424;28;5006;-60
2022/12/14 15:35:07;;;;;;;;;;;;;;;;;;5059241;28;4826;-60
2022/12/14 15:37:44;;;;;;;;;;;;;;;;;;5056072;28;4952;-59
2022/12/14 15:40:25;;;;;;;;;;;;;;;;;;5061765;28;1502;-59
2022/12/14 15:43:14;;;;;;;;;;;;;;;;;;5030630;28;5086;-60
2022/12/14 15:45:42;;;;;;;;;;;;;;;;;;5040796;28;4568;-59
2022/12/14 15:48:14;;;;;;;;;;;;;;;;;;5055844;28;4453;-60
2022/12/14 15:50:43;;;;;;;;;;;;;;;;;;5038248;28;5065;-60
2022/12/14 15:53:12;;;;;;;;;;;;;;;;;;5053875;28;5166;-60
2022/12/14 15:55:39;;;;;;;;;;;;;;;;;;5056053;28;5131;-60
2022/12/14 15:58:16;;;;;;;;;;;;;;;;;;5056990;28;1094;-60
2022/12/14 16:00:43;;;;;;;;;;;;;;;;;;5056513;28;4781;-60
2022/12/14 16:03:20;;;;;;;;;;;;;;;;;;5058807;28;5103;-60
2022/12/14 16:05:46;;;;;;;;;;;;;;;;;;5037507;28;4656;-60
2022/12/14 16:08:11;;;;;;;;;;;;;;;;;;5036787;28;4920;-60
2022/12/14 16:10:36;;;;;;;;;;;;;;;;;;5054104;28;5124;-60
2022/12/14 16:13:22;;;;;;;;;;;;;;;;;;5056514;28;3134;-60
2022/12/14 16:15:48;;;;;;;;;;;;;;;;;;5054407;28;4693;-60
2022/12/14 16:18:15;;;;;;;;;;;;;;;;;;5056417;28;4938;-60
2022/12/14 16:20:41;;;;;;;;;;;;;;;;;;5041277;28;5158;-60
2022/12/14 16:23:12;;;;;;;;;;;;;;;;;;5053323;28;5367;-60
2022/12/14 16:25:48;;;;;;;;;;;;;;;;;;5027568;28;5099;-60
2022/12/14 16:28:20;;;;;;;;;;;;;;;;;;5054526;28;4669;-59
2022/12/14 16:31:12;;;;;;;;;;;;;;;;;;5054434;28;3263;-60
2022/12/14 16:33:38;;;;;;;;;;;;;;;;;;5049341;28;5014;-60
2022/12/14 16:36:04;;;;;;;;;;;;;;;;;;5035599;28;4494;-59
2022/12/14 16:38:29;;;;;;;;;;;;;;;;;;5042161;28;4501;-60
2022/12/14 16:40:54;;;;;;;;;;;;;;;;;;5052637;28;4535;-60
2022/12/14 16:43:24;;;;;;;;;;;;;;;;;;5051141;28;5230;-59
2022/12/14 16:46:01;;;;;;;;;;;;;;;;;;5046458;28;3254;-60
2022/12/14 16:48:27;;;;;;;;;;;;;;;;;;5038009;28;4955;-60
2022/12/14 16:51:12;;;;;;;;;;;;;;;;;;5036424;28;4963;-59
2022/12/14 16:53:38;;;;;;;;;;;;;;;;;;5055618;28;5161;-60
2022/12/14 16:56:17;;;;;;;;;;;;;;;;;;5036854;28;4833;-60
2022/12/14 16:59:05;;;;;;;;;;;;;;;;;;5047656;28;5083;-59
2022/12/14 17:01:38;;;;;;;;;;;;;;;;;;5041494;28;4992;-60
2022/12/14 17:04:03;;;;;;;;;;;;;;;;;;5056497;28;1138;-59
2022/12/14 17:06:33;;;;;;;;;;;;;;;;;;5037647;28;5085;-60
2022/12/14 17:08:58;;;;;;;;;;;;;;;;;;5034603;28;5276;-60
2022/12/14 17:11:24;;;;;;;;;;;;;;;;;;5053576;28;5056;-60
2022/12/14 17:13:49;;;;;;;;;;;;;;;;;;5056275;28;4998;-60
2022/12/14 17:16:15;;;;;;;;;;;;;;;;;;5042465;28;4969;-60
2022/12/14 17:18:41;;;;;;;;;;;;;;;;;;5037281;28;3465;-60
2022/12/14 17:21:06;;;;;;;;;;;;;;;;;;5056931;28;4629;-60
2022/12/14 17:23:40;;;;;;;;;;;;;;;;;;5030263;28;5090;-60
2022/12/14 17:26:08;;;;;;;;;;;;;;;;;;5036598;28;5083;-60
2022/12/14 17:28:33;;;;;;;;;;;;;;;;;;5037457;28;5027;-60
2022/12/14 17:31:00;;;;;;;;;;;;;;;;;;5052540;28;3152;-60